sensor_id;sensor_type;location;lat;lon;timestamp;P1;durP1;ratioP1;P2;durP2;ratioP2
47599;SDS011;33323;52.124;6.018;2024-01-10T00:00:39;2.83;;;2.00;;
47599;SDS011;33323;52.124;6.018;2024-01-10T00:03:06;5.53;;;2.38;;
47599;SDS011;33323;52.124;6.018;2024-01-10T00:05:33;4.65;;;2.03;;
47599;SDS011;33323;52.124;6.018;2024-01-10T00:08:00;5.03;;;2.40;;
47599;SDS011;33323;52.124;6.018;2024-01-10T00:10:27;5.95;;;2.40;;
47599;SDS011;33323;52.124;6.018;2024-01-10T00:12:54;3.75;;;1.90;;
47599;SDS011;33323;52.124;6.018;2024-01-10T00:15:21;5.80;;;1.83;;
47599;SDS011;33323;52.124;6.018;2024-01-10T00:17:48;5.50;;;2.10;;
47599;SDS011;33323;52.124;6.018;2024-01-10T00:20:16;6.10;;;2.08;;
47599;SDS011;33323;52.124;6.018;2024-01-10T00:22:43;3.58;;;1.83;;
47599;SDS011;33323;52.124;6.018;2024-01-10T00:25:10;3.10;;;1.95;;
47599;SDS011;33323;52.124;6.018;2024-01-10T00:27:37;4.45;;;1.63;;
47599;SDS011;33323;52.124;6.018;2024-01-10T00:30:04;6.60;;;2.90;;
47599;SDS011;33323;52.124;6.018;2024-01-10T00:32:33;4.22;;;2.97;;
47599;SDS011;33323;52.124;6.018;2024-01-10T00:35:00;6.93;;;2.50;;
47599;SDS011;33323;52.124;6.018;2024-01-10T00:37:27;4.07;;;2.20;;
47599;SDS011;33323;52.124;6.018;2024-01-10T00:39:54;4.93;;;1.83;;
47599;SDS011;33323;52.124;6.018;2024-01-10T00:42:22;5.45;;;1.90;;
47599;SDS011;33323;52.124;6.018;2024-01-10T00:44:49;6.38;;;1.95;;
47599;SDS011;33323;52.124;6.018;2024-01-10T00:47:16;4.28;;;1.88;;
47599;SDS011;33323;52.124;6.018;2024-01-10T00:49:43;6.20;;;2.10;;
47599;SDS011;33323;52.124;6.018;2024-01-10T00:52:10;4.03;;;2.30;;
47599;SDS011;33323;52.124;6.018;2024-01-10T00:54:37;6.97;;;2.60;;
47599;SDS011;33323;52.124;6.018;2024-01-10T00:57:04;4.85;;;1.77;;
47599;SDS011;33323;52.124;6.018;2024-01-10T00:59:31;4.75;;;2.40;;
47599;SDS011;33323;52.124;6.018;2024-01-10T01:01:58;4.43;;;3.00;;
47599;SDS011;33323;52.124;6.018;2024-01-10T01:04:25;5.05;;;2.53;;
47599;SDS011;33323;52.124;6.018;2024-01-10T01:06:52;5.15;;;2.22;;
47599;SDS011;33323;52.124;6.018;2024-01-10T01:09:19;7.47;;;2.78;;
47599;SDS011;33323;52.124;6.018;2024-01-10T01:11:46;8.07;;;2.50;;
47599;SDS011;33323;52.124;6.018;2024-01-10T01:14:13;5.03;;;2.95;;
47599;SDS011;33323;52.124;6.018;2024-01-10T01:16:40;4.38;;;2.30;;
47599;SDS011;33323;52.124;6.018;2024-01-10T01:19:07;3.42;;;2.22;;
47599;SDS011;33323;52.124;6.018;2024-01-10T01:21:34;6.07;;;2.17;;
47599;SDS011;33323;52.124;6.018;2024-01-10T01:24:01;4.38;;;2.40;;
47599;SDS011;33323;52.124;6.018;2024-01-10T01:26:29;3.60;;;1.90;;
47599;SDS011;33323;52.124;6.018;2024-01-10T01:28:56;4.63;;;2.08;;
47599;SDS011;33323;52.124;6.018;2024-01-10T01:31:24;4.82;;;2.83;;
47599;SDS011;33323;52.124;6.018;2024-01-10T01:33:51;3.92;;;2.20;;
47599;SDS011;33323;52.124;6.018;2024-01-10T01:36:18;4.80;;;2.58;;
47599;SDS011;33323;52.124;6.018;2024-01-10T01:38:45;5.10;;;2.42;;
47599;SDS011;33323;52.124;6.018;2024-01-10T01:41:12;3.67;;;2.00;;
47599;SDS011;33323;52.124;6.018;2024-01-10T01:43:42;6.43;;;2.35;;
47599;SDS011;33323;52.124;6.018;2024-01-10T01:46:09;4.47;;;1.92;;
47599;SDS011;33323;52.124;6.018;2024-01-10T01:48:37;4.45;;;2.20;;
47599;SDS011;33323;52.124;6.018;2024-01-10T01:51:05;4.13;;;2.42;;
47599;SDS011;33323;52.124;6.018;2024-01-10T01:53:37;5.57;;;2.95;;
47599;SDS011;33323;52.124;6.018;2024-01-10T01:56:08;7.68;;;2.13;;
47599;SDS011;33323;52.124;6.018;2024-01-10T01:58:36;5.88;;;2.45;;
47599;SDS011;33323;52.124;6.018;2024-01-10T02:01:04;6.38;;;2.60;;
47599;SDS011;33323;52.124;6.018;2024-01-10T02:03:32;2.42;;;1.60;;
47599;SDS011;33323;52.124;6.018;2024-01-10T02:06:00;4.40;;;2.72;;
47599;SDS011;33323;52.124;6.018;2024-01-10T02:08:31;4.68;;;2.08;;
47599;SDS011;33323;52.124;6.018;2024-01-10T02:11:00;3.90;;;2.17;;
47599;SDS011;33323;52.124;6.018;2024-01-10T02:13:28;4.68;;;2.42;;
47599;SDS011;33323;52.124;6.018;2024-01-10T02:15:56;8.43;;;3.13;;
47599;SDS011;33323;52.124;6.018;2024-01-10T02:18:23;7.28;;;2.80;;
47599;SDS011;33323;52.124;6.018;2024-01-10T02:20:50;3.63;;;2.25;;
47599;SDS011;33323;52.124;6.018;2024-01-10T02:23:18;4.03;;;2.25;;
47599;SDS011;33323;52.124;6.018;2024-01-10T02:25:45;3.55;;;2.15;;
47599;SDS011;33323;52.124;6.018;2024-01-10T02:28:12;5.05;;;2.60;;
47599;SDS011;33323;52.124;6.018;2024-01-10T02:30:39;4.68;;;2.20;;
47599;SDS011;33323;52.124;6.018;2024-01-10T02:33:06;4.22;;;2.15;;
47599;SDS011;33323;52.124;6.018;2024-01-10T02:35:33;5.00;;;2.28;;
47599;SDS011;33323;52.124;6.018;2024-01-10T02:38:01;5.63;;;2.65;;
47599;SDS011;33323;52.124;6.018;2024-01-10T02:40:29;7.70;;;2.72;;
47599;SDS011;33323;52.124;6.018;2024-01-10T02:42:56;4.97;;;2.95;;
47599;SDS011;33323;52.124;6.018;2024-01-10T02:45:23;4.30;;;2.13;;
47599;SDS011;33323;52.124;6.018;2024-01-10T02:47:50;9.38;;;3.00;;
47599;SDS011;33323;52.124;6.018;2024-01-10T02:50:17;6.00;;;2.65;;
47599;SDS011;33323;52.124;6.018;2024-01-10T02:52:45;5.53;;;2.85;;
47599;SDS011;33323;52.124;6.018;2024-01-10T02:55:12;4.03;;;2.50;;
47599;SDS011;33323;52.124;6.018;2024-01-10T02:57:39;5.00;;;2.72;;
47599;SDS011;33323;52.124;6.018;2024-01-10T03:00:06;7.03;;;2.53;;
47599;SDS011;33323;52.124;6.018;2024-01-10T03:02:34;6.50;;;2.20;;
47599;SDS011;33323;52.124;6.018;2024-01-10T03:05:01;4.72;;;2.35;;
47599;SDS011;33323;52.124;6.018;2024-01-10T03:07:28;7.53;;;3.20;;
47599;SDS011;33323;52.124;6.018;2024-01-10T03:09:55;5.20;;;2.95;;
47599;SDS011;33323;52.124;6.018;2024-01-10T03:12:23;3.47;;;1.95;;
47599;SDS011;33323;52.124;6.018;2024-01-10T03:14:50;3.60;;;2.03;;
47599;SDS011;33323;52.124;6.018;2024-01-10T03:17:17;8.52;;;2.38;;
47599;SDS011;33323;52.124;6.018;2024-01-10T03:19:44;6.68;;;2.80;;
47599;SDS011;33323;52.124;6.018;2024-01-10T03:22:11;4.57;;;2.22;;
47599;SDS011;33323;52.124;6.018;2024-01-10T03:24:38;4.25;;;2.47;;
47599;SDS011;33323;52.124;6.018;2024-01-10T03:27:05;5.68;;;2.80;;
47599;SDS011;33323;52.124;6.018;2024-01-10T03:29:32;3.92;;;2.25;;
47599;SDS011;33323;52.124;6.018;2024-01-10T03:32:01;4.88;;;2.50;;
47599;SDS011;33323;52.124;6.018;2024-01-10T03:34:28;5.22;;;2.47;;
47599;SDS011;33323;52.124;6.018;2024-01-10T03:36:55;4.47;;;2.30;;
47599;SDS011;33323;52.124;6.018;2024-01-10T03:39:22;8.32;;;3.83;;
47599;SDS011;33323;52.124;6.018;2024-01-10T03:41:49;6.55;;;3.03;;
47599;SDS011;33323;52.124;6.018;2024-01-10T03:44:16;6.07;;;2.85;;
47599;SDS011;33323;52.124;6.018;2024-01-10T03:46:43;5.20;;;2.78;;
47599;SDS011;33323;52.124;6.018;2024-01-10T03:49:11;8.68;;;2.63;;
47599;SDS011;33323;52.124;6.018;2024-01-10T03:51:38;3.13;;;2.25;;
47599;SDS011;33323;52.124;6.018;2024-01-10T03:54:07;4.57;;;2.00;;
47599;SDS011;33323;52.124;6.018;2024-01-10T03:56:34;5.05;;;2.58;;
47599;SDS011;33323;52.124;6.018;2024-01-10T03:59:01;6.45;;;2.83;;
47599;SDS011;33323;52.124;6.018;2024-01-10T04:01:28;5.05;;;2.58;;
47599;SDS011;33323;52.124;6.018;2024-01-10T04:03:55;7.00;;;2.40;;
47599;SDS011;33323;52.124;6.018;2024-01-10T04:06:22;6.50;;;2.40;;
47599;SDS011;33323;52.124;6.018;2024-01-10T04:08:50;6.47;;;2.63;;
47599;SDS011;33323;52.124;6.018;2024-01-10T04:11:17;4.03;;;2.13;;
47599;SDS011;33323;52.124;6.018;2024-01-10T04:13:44;5.40;;;2.72;;
47599;SDS011;33323;52.124;6.018;2024-01-10T04:16:11;6.32;;;2.53;;
47599;SDS011;33323;52.124;6.018;2024-01-10T04:18:39;4.57;;;2.47;;
47599;SDS011;33323;52.124;6.018;2024-01-10T04:21:07;6.30;;;3.42;;
47599;SDS011;33323;52.124;6.018;2024-01-10T04:23:35;4.70;;;3.05;;
47599;SDS011;33323;52.124;6.018;2024-01-10T04:26:02;6.07;;;3.50;;
47599;SDS011;33323;52.124;6.018;2024-01-10T04:28:29;3.58;;;2.10;;
47599;SDS011;33323;52.124;6.018;2024-01-10T04:30:57;6.93;;;2.53;;
47599;SDS011;33323;52.124;6.018;2024-01-10T04:33:24;5.10;;;2.30;;
47599;SDS011;33323;52.124;6.018;2024-01-10T04:35:51;9.88;;;3.08;;
47599;SDS011;33323;52.124;6.018;2024-01-10T04:38:18;4.97;;;2.67;;
47599;SDS011;33323;52.124;6.018;2024-01-10T04:40:45;4.90;;;2.70;;
47599;SDS011;33323;52.124;6.018;2024-01-10T04:43:12;5.53;;;2.63;;
47599;SDS011;33323;52.124;6.018;2024-01-10T04:45:40;4.90;;;3.28;;
47599;SDS011;33323;52.124;6.018;2024-01-10T04:48:07;5.90;;;3.05;;
47599;SDS011;33323;52.124;6.018;2024-01-10T04:50:34;9.77;;;3.88;;
47599;SDS011;33323;52.124;6.018;2024-01-10T04:53:02;4.57;;;2.88;;
47599;SDS011;33323;52.124;6.018;2024-01-10T04:55:29;6.18;;;2.55;;
47599;SDS011;33323;52.124;6.018;2024-01-10T04:57:57;7.45;;;3.25;;
47599;SDS011;33323;52.124;6.018;2024-01-10T05:00:24;5.57;;;3.08;;
47599;SDS011;33323;52.124;6.018;2024-01-10T05:02:51;6.47;;;3.20;;
47599;SDS011;33323;52.124;6.018;2024-01-10T05:05:20;5.75;;;2.80;;
47599;SDS011;33323;52.124;6.018;2024-01-10T05:07:50;3.83;;;2.25;;
47599;SDS011;33323;52.124;6.018;2024-01-10T05:10:18;5.22;;;2.60;;
47599;SDS011;33323;52.124;6.018;2024-01-10T05:12:45;4.47;;;2.47;;
47599;SDS011;33323;52.124;6.018;2024-01-10T05:15:12;7.10;;;3.75;;
47599;SDS011;33323;52.124;6.018;2024-01-10T05:17:39;4.93;;;2.95;;
47599;SDS011;33323;52.124;6.018;2024-01-10T05:20:06;5.72;;;3.05;;
47599;SDS011;33323;52.124;6.018;2024-01-10T05:22:34;4.05;;;2.25;;
47599;SDS011;33323;52.124;6.018;2024-01-10T05:27:49;5.70;;;2.53;;
47599;SDS011;33323;52.124;6.018;2024-01-10T05:30:16;6.43;;;3.38;;
47599;SDS011;33323;52.124;6.018;2024-01-10T05:32:44;5.60;;;2.75;;
47599;SDS011;33323;52.124;6.018;2024-01-10T05:35:11;4.63;;;2.13;;
47599;SDS011;33323;52.124;6.018;2024-01-10T05:37:38;4.03;;;2.60;;
47599;SDS011;33323;52.124;6.018;2024-01-10T05:40:05;7.82;;;3.17;;
47599;SDS011;33323;52.124;6.018;2024-01-10T05:42:33;7.60;;;3.20;;
47599;SDS011;33323;52.124;6.018;2024-01-10T05:45:00;8.48;;;2.90;;
47599;SDS011;33323;52.124;6.018;2024-01-10T05:47:28;5.15;;;2.78;;
47599;SDS011;33323;52.124;6.018;2024-01-10T05:49:55;7.72;;;3.38;;
47599;SDS011;33323;52.124;6.018;2024-01-10T05:52:22;8.07;;;4.35;;
47599;SDS011;33323;52.124;6.018;2024-01-10T05:54:50;6.60;;;4.00;;
47599;SDS011;33323;52.124;6.018;2024-01-10T06:00:09;5.00;;;2.97;;
47599;SDS011;33323;52.124;6.018;2024-01-10T06:02:37;6.07;;;3.00;;
47599;SDS011;33323;52.124;6.018;2024-01-10T06:05:06;8.52;;;3.85;;
47599;SDS011;33323;52.124;6.018;2024-01-10T06:07:35;7.68;;;3.20;;
47599;SDS011;33323;52.124;6.018;2024-01-10T06:10:07;7.85;;;3.72;;
47599;SDS011;33323;52.124;6.018;2024-01-10T06:12:34;6.88;;;3.42;;
47599;SDS011;33323;52.124;6.018;2024-01-10T06:15:01;5.80;;;2.60;;
47599;SDS011;33323;52.124;6.018;2024-01-10T06:17:29;8.63;;;3.10;;
47599;SDS011;33323;52.124;6.018;2024-01-10T06:19:58;9.70;;;3.55;;
47599;SDS011;33323;52.124;6.018;2024-01-10T06:22:29;7.80;;;4.05;;
47599;SDS011;33323;52.124;6.018;2024-01-10T06:24:56;8.60;;;3.90;;
47599;SDS011;33323;52.124;6.018;2024-01-10T06:27:23;9.55;;;4.13;;
47599;SDS011;33323;52.124;6.018;2024-01-10T06:29:50;12.27;;;3.63;;
47599;SDS011;33323;52.124;6.018;2024-01-10T06:32:17;8.95;;;3.70;;
47599;SDS011;33323;52.124;6.018;2024-01-10T06:34:45;9.13;;;3.88;;
47599;SDS011;33323;52.124;6.018;2024-01-10T06:37:12;8.35;;;3.53;;
47599;SDS011;33323;52.124;6.018;2024-01-10T06:39:39;9.55;;;5.00;;
47599;SDS011;33323;52.124;6.018;2024-01-10T06:42:07;7.40;;;3.63;;
47599;SDS011;33323;52.124;6.018;2024-01-10T06:44:37;5.47;;;2.85;;
47599;SDS011;33323;52.124;6.018;2024-01-10T06:47:04;7.75;;;3.03;;
47599;SDS011;33323;52.124;6.018;2024-01-10T06:49:31;7.45;;;3.67;;
47599;SDS011;33323;52.124;6.018;2024-01-10T06:51:59;6.88;;;4.40;;
47599;SDS011;33323;52.124;6.018;2024-01-10T06:54:27;9.70;;;3.85;;
47599;SDS011;33323;52.124;6.018;2024-01-10T06:56:54;6.10;;;3.67;;
47599;SDS011;33323;52.124;6.018;2024-01-10T06:59:21;9.55;;;4.10;;
47599;SDS011;33323;52.124;6.018;2024-01-10T07:01:53;5.97;;;3.42;;
47599;SDS011;33323;52.124;6.018;2024-01-10T07:04:22;12.23;;;4.18;;
47599;SDS011;33323;52.124;6.018;2024-01-10T07:06:51;9.13;;;4.53;;
47599;SDS011;33323;52.124;6.018;2024-01-10T07:09:19;10.75;;;4.40;;
47599;SDS011;33323;52.124;6.018;2024-01-10T07:11:46;8.35;;;4.03;;
47599;SDS011;33323;52.124;6.018;2024-01-10T07:14:14;5.70;;;3.03;;
47599;SDS011;33323;52.124;6.018;2024-01-10T07:16:43;7.80;;;4.28;;
47599;SDS011;33323;52.124;6.018;2024-01-10T07:19:13;8.55;;;3.75;;
47599;SDS011;33323;52.124;6.018;2024-01-10T07:21:41;7.97;;;4.50;;
47599;SDS011;33323;52.124;6.018;2024-01-10T07:24:09;10.57;;;4.43;;
47599;SDS011;33323;52.124;6.018;2024-01-10T07:26:37;8.50;;;4.28;;
47599;SDS011;33323;52.124;6.018;2024-01-10T07:29:05;9.48;;;4.55;;
47599;SDS011;33323;52.124;6.018;2024-01-10T07:31:35;9.05;;;4.63;;
47599;SDS011;33323;52.124;6.018;2024-01-10T07:34:04;9.40;;;5.00;;
47599;SDS011;33323;52.124;6.018;2024-01-10T07:36:32;10.18;;;4.43;;
47599;SDS011;33323;52.124;6.018;2024-01-10T07:39:00;9.15;;;3.60;;
47599;SDS011;33323;52.124;6.018;2024-01-10T07:41:30;11.60;;;4.93;;
47599;SDS011;33323;52.124;6.018;2024-01-10T07:43:58;10.57;;;4.70;;
47599;SDS011;33323;52.124;6.018;2024-01-10T07:46:25;10.70;;;4.70;;
47599;SDS011;33323;52.124;6.018;2024-01-10T07:48:54;8.68;;;4.95;;
47599;SDS011;33323;52.124;6.018;2024-01-10T07:51:21;10.73;;;5.78;;
47599;SDS011;33323;52.124;6.018;2024-01-10T07:54:09;10.02;;;4.75;;
47599;SDS011;33323;52.124;6.018;2024-01-10T07:56:36;9.25;;;4.88;;
47599;SDS011;33323;52.124;6.018;2024-01-10T07:59:04;9.82;;;5.05;;
47599;SDS011;33323;52.124;6.018;2024-01-10T08:01:32;14.23;;;3.92;;
47599;SDS011;33323;52.124;6.018;2024-01-10T08:04:00;8.50;;;4.30;;
47599;SDS011;33323;52.124;6.018;2024-01-10T08:06:27;9.45;;;4.40;;
47599;SDS011;33323;52.124;6.018;2024-01-10T08:08:59;11.25;;;5.07;;
47599;SDS011;33323;52.124;6.018;2024-01-10T08:11:26;8.27;;;4.30;;
47599;SDS011;33323;52.124;6.018;2024-01-10T08:13:53;11.15;;;5.10;;
47599;SDS011;33323;52.124;6.018;2024-01-10T08:16:20;10.82;;;5.03;;
47599;SDS011;33323;52.124;6.018;2024-01-10T08:18:48;11.38;;;5.13;;
47599;SDS011;33323;52.124;6.018;2024-01-10T08:21:15;9.30;;;4.38;;
47599;SDS011;33323;52.124;6.018;2024-01-10T08:23:43;16.10;;;7.53;;
47599;SDS011;33323;52.124;6.018;2024-01-10T08:26:10;14.07;;;5.57;;
47599;SDS011;33323;52.124;6.018;2024-01-10T08:28:39;19.88;;;5.80;;
47599;SDS011;33323;52.124;6.018;2024-01-10T08:31:07;12.30;;;4.03;;
47599;SDS011;33323;52.124;6.018;2024-01-10T08:33:35;10.13;;;4.80;;
47599;SDS011;33323;52.124;6.018;2024-01-10T08:36:02;8.25;;;4.30;;
47599;SDS011;33323;52.124;6.018;2024-01-10T08:38:29;9.43;;;4.78;;
47599;SDS011;33323;52.124;6.018;2024-01-10T08:40:57;12.95;;;5.78;;
47599;SDS011;33323;52.124;6.018;2024-01-10T08:43:25;10.73;;;5.53;;
47599;SDS011;33323;52.124;6.018;2024-01-10T08:45:52;12.55;;;5.32;;
47599;SDS011;33323;52.124;6.018;2024-01-10T08:48:20;7.90;;;5.20;;
47599;SDS011;33323;52.124;6.018;2024-01-10T08:50:48;11.07;;;5.32;;
47599;SDS011;33323;52.124;6.018;2024-01-10T08:53:18;9.10;;;4.68;;
47599;SDS011;33323;52.124;6.018;2024-01-10T08:55:45;10.98;;;5.13;;
47599;SDS011;33323;52.124;6.018;2024-01-10T08:58:14;13.00;;;5.88;;
47599;SDS011;33323;52.124;6.018;2024-01-10T09:00:41;10.77;;;5.18;;
47599;SDS011;33323;52.124;6.018;2024-01-10T09:03:09;14.13;;;5.25;;
47599;SDS011;33323;52.124;6.018;2024-01-10T09:05:36;9.90;;;4.78;;
47599;SDS011;33323;52.124;6.018;2024-01-10T09:08:04;12.23;;;3.63;;
47599;SDS011;33323;52.124;6.018;2024-01-10T09:10:32;10.35;;;4.80;;
47599;SDS011;33323;52.124;6.018;2024-01-10T09:13:00;7.75;;;4.13;;
47599;SDS011;33323;52.124;6.018;2024-01-10T09:15:27;8.45;;;4.68;;
47599;SDS011;33323;52.124;6.018;2024-01-10T09:17:55;8.68;;;4.72;;
47599;SDS011;33323;52.124;6.018;2024-01-10T09:20:23;11.15;;;4.70;;
47599;SDS011;33323;52.124;6.018;2024-01-10T09:22:50;9.50;;;4.45;;
47599;SDS011;33323;52.124;6.018;2024-01-10T09:25:18;12.05;;;5.35;;
47599;SDS011;33323;52.124;6.018;2024-01-10T09:27:46;9.20;;;4.50;;
47599;SDS011;33323;52.124;6.018;2024-01-10T09:30:13;11.13;;;4.93;;
47599;SDS011;33323;52.124;6.018;2024-01-10T09:32:44;15.13;;;5.65;;
47599;SDS011;33323;52.124;6.018;2024-01-10T09:35:13;9.40;;;4.45;;
47599;SDS011;33323;52.124;6.018;2024-01-10T09:37:40;9.30;;;4.32;;
47599;SDS011;33323;52.124;6.018;2024-01-10T09:40:08;8.70;;;5.55;;
47599;SDS011;33323;52.124;6.018;2024-01-10T09:42:37;12.57;;;4.82;;
47599;SDS011;33323;52.124;6.018;2024-01-10T09:45:04;11.40;;;5.22;;
47599;SDS011;33323;52.124;6.018;2024-01-10T09:47:35;11.57;;;5.40;;
47599;SDS011;33323;52.124;6.018;2024-01-10T09:50:07;10.57;;;4.93;;
47599;SDS011;33323;52.124;6.018;2024-01-10T09:52:39;12.10;;;5.38;;
47599;SDS011;33323;52.124;6.018;2024-01-10T09:55:21;11.23;;;5.30;;
47599;SDS011;33323;52.124;6.018;2024-01-10T09:57:52;13.73;;;4.65;;
47599;SDS011;33323;52.124;6.018;2024-01-10T10:00:20;10.63;;;5.82;;
47599;SDS011;33323;52.124;6.018;2024-01-10T10:02:50;12.50;;;5.82;;
47599;SDS011;33323;52.124;6.018;2024-01-10T10:05:18;9.57;;;5.95;;
47599;SDS011;33323;52.124;6.018;2024-01-10T10:07:50;11.43;;;4.88;;
47599;SDS011;33323;52.124;6.018;2024-01-10T10:10:20;9.65;;;4.72;;
47599;SDS011;33323;52.124;6.018;2024-01-10T10:12:48;13.30;;;5.22;;
47599;SDS011;33323;52.124;6.018;2024-01-10T10:15:20;11.90;;;5.57;;
47599;SDS011;33323;52.124;6.018;2024-01-10T10:17:50;11.30;;;5.43;;
47599;SDS011;33323;52.124;6.018;2024-01-10T10:20:24;12.32;;;4.78;;
47599;SDS011;33323;52.124;6.018;2024-01-10T10:23:01;9.00;;;4.75;;
47599;SDS011;33323;52.124;6.018;2024-01-10T10:25:34;15.35;;;6.43;;
47599;SDS011;33323;52.124;6.018;2024-01-10T10:28:04;11.90;;;5.20;;
47599;SDS011;33323;52.124;6.018;2024-01-10T10:30:34;15.75;;;5.40;;
47599;SDS011;33323;52.124;6.018;2024-01-10T10:33:02;12.52;;;5.65;;
47599;SDS011;33323;52.124;6.018;2024-01-10T10:35:32;11.68;;;5.22;;
47599;SDS011;33323;52.124;6.018;2024-01-10T10:38:07;10.10;;;4.65;;
47599;SDS011;33323;52.124;6.018;2024-01-10T10:40:37;14.73;;;5.28;;
47599;SDS011;33323;52.124;6.018;2024-01-10T10:43:06;11.23;;;5.30;;
47599;SDS011;33323;52.124;6.018;2024-01-10T10:45:43;11.45;;;4.95;;
47599;SDS011;33323;52.124;6.018;2024-01-10T10:48:17;14.90;;;5.20;;
47599;SDS011;33323;52.124;6.018;2024-01-10T10:51:08;12.85;;;5.03;;
47599;SDS011;33323;52.124;6.018;2024-01-10T10:53:43;9.77;;;4.90;;
47599;SDS011;33323;52.124;6.018;2024-01-10T10:56:12;9.13;;;4.43;;
47599;SDS011;33323;52.124;6.018;2024-01-10T10:58:41;11.75;;;5.82;;
47599;SDS011;33323;52.124;6.018;2024-01-10T11:01:11;12.73;;;5.70;;
47599;SDS011;33323;52.124;6.018;2024-01-10T11:03:41;10.07;;;5.18;;
47599;SDS011;33323;52.124;6.018;2024-01-10T11:06:11;10.23;;;5.18;;
47599;SDS011;33323;52.124;6.018;2024-01-10T11:08:47;9.48;;;4.85;;
47599;SDS011;33323;52.124;6.018;2024-01-10T11:14:08;13.63;;;6.28;;
47599;SDS011;33323;52.124;6.018;2024-01-10T11:16:56;11.93;;;5.53;;
47599;SDS011;33323;52.124;6.018;2024-01-10T11:25:31;9.65;;;5.05;;
47599;SDS011;33323;52.124;6.018;2024-01-10T11:28:02;8.18;;;4.57;;
47599;SDS011;33323;52.124;6.018;2024-01-10T11:30:35;13.00;;;5.22;;
47599;SDS011;33323;52.124;6.018;2024-01-10T11:33:24;11.55;;;5.07;;
47599;SDS011;33323;52.124;6.018;2024-01-10T11:36:07;13.85;;;5.55;;
47599;SDS011;33323;52.124;6.018;2024-01-10T11:38:53;12.20;;;4.88;;
47599;SDS011;33323;52.124;6.018;2024-01-10T11:41:29;11.43;;;5.55;;
47599;SDS011;33323;52.124;6.018;2024-01-10T11:46:49;10.05;;;5.28;;
47599;SDS011;33323;52.124;6.018;2024-01-10T11:49:20;15.60;;;5.43;;
47599;SDS011;33323;52.124;6.018;2024-01-10T11:51:50;13.23;;;6.40;;
47599;SDS011;33323;52.124;6.018;2024-01-10T11:57:08;12.60;;;5.15;;
47599;SDS011;33323;52.124;6.018;2024-01-10T11:59:44;12.40;;;5.78;;
47599;SDS011;33323;52.124;6.018;2024-01-10T12:02:13;12.15;;;5.07;;
47599;SDS011;33323;52.124;6.018;2024-01-10T12:04:42;12.93;;;5.60;;
47599;SDS011;33323;52.124;6.018;2024-01-10T12:07:15;13.88;;;6.05;;
47599;SDS011;33323;52.124;6.018;2024-01-10T12:09:46;8.95;;;4.45;;
47599;SDS011;33323;52.124;6.018;2024-01-10T12:12:15;8.25;;;4.85;;
47599;SDS011;33323;52.124;6.018;2024-01-10T12:14:42;10.55;;;4.95;;
47599;SDS011;33323;52.124;6.018;2024-01-10T12:17:11;10.00;;;4.68;;
47599;SDS011;33323;52.124;6.018;2024-01-10T12:19:39;11.55;;;6.93;;
47599;SDS011;33323;52.124;6.018;2024-01-10T12:22:12;13.90;;;5.90;;
47599;SDS011;33323;52.124;6.018;2024-01-10T12:24:48;11.30;;;5.25;;
47599;SDS011;33323;52.124;6.018;2024-01-10T12:27:18;10.45;;;4.80;;
47599;SDS011;33323;52.124;6.018;2024-01-10T12:29:51;9.60;;;5.20;;
47599;SDS011;33323;52.124;6.018;2024-01-10T12:32:20;10.10;;;5.47;;
47599;SDS011;33323;52.124;6.018;2024-01-10T12:35:02;10.95;;;5.47;;
47599;SDS011;33323;52.124;6.018;2024-01-10T12:37:32;8.82;;;4.95;;
47599;SDS011;33323;52.124;6.018;2024-01-10T12:39:59;9.02;;;5.20;;
47599;SDS011;33323;52.124;6.018;2024-01-10T12:42:29;10.98;;;5.30;;
47599;SDS011;33323;52.124;6.018;2024-01-10T12:44:56;11.32;;;5.30;;
47599;SDS011;33323;52.124;6.018;2024-01-10T12:47:24;9.60;;;4.57;;
47599;SDS011;33323;52.124;6.018;2024-01-10T12:49:53;10.73;;;4.47;;
47599;SDS011;33323;52.124;6.018;2024-01-10T12:52:21;9.82;;;5.22;;
47599;SDS011;33323;52.124;6.018;2024-01-10T12:54:50;10.15;;;5.28;;
47599;SDS011;33323;52.124;6.018;2024-01-10T12:57:20;9.73;;;5.32;;
47599;SDS011;33323;52.124;6.018;2024-01-10T12:59:47;12.43;;;5.72;;
47599;SDS011;33323;52.124;6.018;2024-01-10T13:02:15;11.27;;;5.82;;
47599;SDS011;33323;52.124;6.018;2024-01-10T13:04:42;15.23;;;5.10;;
47599;SDS011;33323;52.124;6.018;2024-01-10T13:07:10;8.60;;;5.15;;
47599;SDS011;33323;52.124;6.018;2024-01-10T13:09:38;9.25;;;6.00;;
47599;SDS011;33323;52.124;6.018;2024-01-10T13:12:06;11.52;;;4.25;;
47599;SDS011;33323;52.124;6.018;2024-01-10T13:14:34;13.43;;;5.65;;
47599;SDS011;33323;52.124;6.018;2024-01-10T13:17:02;9.45;;;4.28;;
47599;SDS011;33323;52.124;6.018;2024-01-10T13:19:30;8.65;;;5.50;;
47599;SDS011;33323;52.124;6.018;2024-01-10T13:21:58;11.70;;;4.70;;
47599;SDS011;33323;52.124;6.018;2024-01-10T13:24:27;9.15;;;3.90;;
47599;SDS011;33323;52.124;6.018;2024-01-10T13:26:54;10.27;;;5.13;;
47599;SDS011;33323;52.124;6.018;2024-01-10T13:29:21;8.07;;;4.10;;
47599;SDS011;33323;52.124;6.018;2024-01-10T13:31:48;9.95;;;4.72;;
47599;SDS011;33323;52.124;6.018;2024-01-10T13:34:16;11.73;;;4.20;;
47599;SDS011;33323;52.124;6.018;2024-01-10T13:36:43;9.77;;;4.72;;
47599;SDS011;33323;52.124;6.018;2024-01-10T13:39:10;8.85;;;4.07;;
47599;SDS011;33323;52.124;6.018;2024-01-10T13:41:41;11.77;;;4.53;;
47599;SDS011;33323;52.124;6.018;2024-01-10T13:44:08;9.00;;;4.45;;
47599;SDS011;33323;52.124;6.018;2024-01-10T13:46:36;12.45;;;5.85;;
47599;SDS011;33323;52.124;6.018;2024-01-10T13:49:03;11.45;;;4.80;;
47599;SDS011;33323;52.124;6.018;2024-01-10T13:51:30;9.10;;;4.32;;
47599;SDS011;33323;52.124;6.018;2024-01-10T13:53:58;7.47;;;4.15;;
47599;SDS011;33323;52.124;6.018;2024-01-10T13:56:25;9.57;;;5.00;;
47599;SDS011;33323;52.124;6.018;2024-01-10T13:58:54;8.65;;;3.95;;
47599;SDS011;33323;52.124;6.018;2024-01-10T14:01:21;9.15;;;4.32;;
47599;SDS011;33323;52.124;6.018;2024-01-10T14:03:48;8.73;;;5.95;;
47599;SDS011;33323;52.124;6.018;2024-01-10T14:06:15;11.13;;;4.45;;
47599;SDS011;33323;52.124;6.018;2024-01-10T14:08:42;9.68;;;4.28;;
47599;SDS011;33323;52.124;6.018;2024-01-10T14:11:12;10.05;;;4.20;;
47599;SDS011;33323;52.124;6.018;2024-01-10T14:13:40;9.25;;;5.05;;
47599;SDS011;33323;52.124;6.018;2024-01-10T14:16:07;10.05;;;4.03;;
47599;SDS011;33323;52.124;6.018;2024-01-10T14:18:34;7.82;;;4.57;;
47599;SDS011;33323;52.124;6.018;2024-01-10T14:21:01;10.43;;;4.63;;
47599;SDS011;33323;52.124;6.018;2024-01-10T14:23:28;9.73;;;3.95;;
47599;SDS011;33323;52.124;6.018;2024-01-10T14:25:55;8.73;;;4.20;;
47599;SDS011;33323;52.124;6.018;2024-01-10T14:28:23;9.52;;;4.60;;
47599;SDS011;33323;52.124;6.018;2024-01-10T14:30:50;11.00;;;4.95;;
47599;SDS011;33323;52.124;6.018;2024-01-10T14:33:19;8.82;;;5.03;;
47599;SDS011;33323;52.124;6.018;2024-01-10T14:35:46;9.18;;;4.25;;
47599;SDS011;33323;52.124;6.018;2024-01-10T14:38:14;11.43;;;5.35;;
47599;SDS011;33323;52.124;6.018;2024-01-10T14:40:41;9.88;;;4.53;;
47599;SDS011;33323;52.124;6.018;2024-01-10T14:43:08;11.10;;;4.28;;
47599;SDS011;33323;52.124;6.018;2024-01-10T14:45:35;8.68;;;4.07;;
47599;SDS011;33323;52.124;6.018;2024-01-10T14:48:02;9.82;;;3.97;;
47599;SDS011;33323;52.124;6.018;2024-01-10T14:50:30;10.27;;;4.65;;
47599;SDS011;33323;52.124;6.018;2024-01-10T14:52:57;10.10;;;4.90;;
47599;SDS011;33323;52.124;6.018;2024-01-10T14:55:24;11.05;;;5.18;;
47599;SDS011;33323;52.124;6.018;2024-01-10T14:57:51;15.88;;;5.50;;
47599;SDS011;33323;52.124;6.018;2024-01-10T15:00:18;9.82;;;4.90;;
47599;SDS011;33323;52.124;6.018;2024-01-10T15:02:45;8.98;;;4.20;;
47599;SDS011;33323;52.124;6.018;2024-01-10T15:05:13;9.77;;;4.68;;
47599;SDS011;33323;52.124;6.018;2024-01-10T15:07:40;10.80;;;4.85;;
47599;SDS011;33323;52.124;6.018;2024-01-10T15:10:07;10.07;;;4.68;;